sensor_id;sensor_type;location;lat;lon;timestamp;temperature;humidity
10889;DHT22;5497;51.388;6.780;2022-12-18T00:02:04;-3.60;99.90
10889;DHT22;5497;51.388;6.780;2022-12-18T00:04:31;-3.50;99.90
10889;DHT22;5497;51.388;6.780;2022-12-18T00:06:58;-3.50;99.90
10889;DHT22;5497;51.388;6.780;2022-12-18T00:09:25;-3.40;99.90
10889;DHT22;5497;51.388;6.780;2022-12-18T00:11:52;-3.50;99.90
10889;DHT22;5497;51.388;6.780;2022-12-18T00:14:20;-3.40;99.90
10889;DHT22;5497;51.388;6.780;2022-12-18T00:16:47;-3.40;99.90
10889;DHT22;5497;51.388;6.780;2022-12-18T00:19:14;-3.80;99.90
10889;DHT22;5497;51.388;6.780;2022-12-18T00:21:41;-3.10;99.90
10889;DHT22;5497;51.388;6.780;2022-12-18T00:24:09;-3.20;99.90
10889;DHT22;5497;51.388;6.780;2022-12-18T00:26:38;-3.20;99.90
10889;DHT22;5497;51.388;6.780;2022-12-18T00:29:06;-3.10;99.90
10889;DHT22;5497;51.388;6.780;2022-12-18T00:31:36;-3.10;99.90
10889;DHT22;5497;51.388;6.780;2022-12-18T00:34:04;-3.00;99.90
10889;DHT22;5497;51.388;6.780;2022-12-18T00:36:31;-3.00;99.90
10889;DHT22;5497;51.388;6.780;2022-12-18T00:38:59;-3.00;99.90
10889;DHT22;5497;51.388;6.780;2022-12-18T00:41:26;-3.00;99.90
10889;DHT22;5497;51.388;6.780;2022-12-18T00:44:12;-2.90;99.90
10889;DHT22;5497;51.388;6.780;2022-12-18T00:46:40;-2.90;99.90
10889;DHT22;5497;51.388;6.780;2022-12-18T00:49:07;-3.00;99.90
10889;DHT22;5497;51.388;6.780;2022-12-18T00:51:34;-2.90;99.90
10889;DHT22;5497;51.388;6.780;2022-12-18T00:54:02;-2.80;99.90
10889;DHT22;5497;51.388;6.780;2022-12-18T00:56:30;-2.80;99.90
10889;DHT22;5497;51.388;6.780;2022-12-18T00:58:57;-2.80;99.90
10889;DHT22;5497;51.388;6.780;2022-12-18T01:01:25;-2.80;99.90
10889;DHT22;5497;51.388;6.780;2022-12-18T01:03:54;-2.80;99.90
10889;DHT22;5497;51.388;6.780;2022-12-18T01:06:24;-2.80;99.90
10889;DHT22;5497;51.388;6.780;2022-12-18T01:08:51;-2.80;99.90
10889;DHT22;5497;51.388;6.780;2022-12-18T01:11:19;-2.80;99.90
10889;DHT22;5497;51.388;6.780;2022-12-18T01:13:47;-2.80;99.90
10889;DHT22;5497;51.388;6.780;2022-12-18T01:16:14;-2.80;99.90
10889;DHT22;5497;51.388;6.780;2022-12-18T01:18:42;-2.80;99.90
10889;DHT22;5497;51.388;6.780;2022-12-18T01:21:12;-2.90;99.90
10889;DHT22;5497;51.388;6.780;2022-12-18T01:23:39;-2.90;99.90
10889;DHT22;5497;51.388;6.780;2022-12-18T01:26:10;-2.90;99.90
10889;DHT22;5497;51.388;6.780;2022-12-18T01:28:37;-2.90;99.90
10889;DHT22;5497;51.388;6.780;2022-12-18T01:31:12;-3.00;99.90
10889;DHT22;5497;51.388;6.780;2022-12-18T01:33:39;-2.90;99.90
10889;DHT22;5497;51.388;6.780;2022-12-18T01:36:06;-3.00;99.90
10889;DHT22;5497;51.388;6.780;2022-12-18T01:38:35;-3.00;99.90
10889;DHT22;5497;51.388;6.780;2022-12-18T01:41:02;-3.00;99.90
10889;DHT22;5497;51.388;6.780;2022-12-18T01:43:48;-2.90;99.90
10889;DHT22;5497;51.388;6.780;2022-12-18T01:46:15;-2.90;99.90
10889;DHT22;5497;51.388;6.780;2022-12-18T01:48:42;-2.90;99.90
10889;DHT22;5497;51.388;6.780;2022-12-18T01:51:10;-2.80;99.90
10889;DHT22;5497;51.388;6.780;2022-12-18T01:53:39;-2.80;99.90
10889;DHT22;5497;51.388;6.780;2022-12-18T01:56:07;-2.80;99.90
10889;DHT22;5497;51.388;6.780;2022-12-18T01:58:37;-2.70;99.90
10889;DHT22;5497;51.388;6.780;2022-12-18T02:01:06;-2.70;99.90
10889;DHT22;5497;51.388;6.780;2022-12-18T02:03:33;-2.60;99.90
10889;DHT22;5497;51.388;6.780;2022-12-18T02:06:02;-2.70;99.90
10889;DHT22;5497;51.388;6.780;2022-12-18T02:08:33;-2.70;99.90
10889;DHT22;5497;51.388;6.780;2022-12-18T02:11:05;-2.70;99.90
10889;DHT22;5497;51.388;6.780;2022-12-18T02:13:36;-2.70;99.90
10889;DHT22;5497;51.388;6.780;2022-12-18T02:16:05;-2.70;99.90
10889;DHT22;5497;51.388;6.780;2022-12-18T02:18:36;-2.70;99.90
10889;DHT22;5497;51.388;6.780;2022-12-18T02:21:08;-2.70;99.90
10889;DHT22;5497;51.388;6.780;2022-12-18T02:23:40;-2.70;99.90
10889;DHT22;5497;51.388;6.780;2022-12-18T02:26:14;-2.70;99.90
10889;DHT22;5497;51.388;6.780;2022-12-18T02:28:45;-2.70;99.90
10889;DHT22;5497;51.388;6.780;2022-12-18T02:31:16;-2.70;99.90
10889;DHT22;5497;51.388;6.780;2022-12-18T02:33:52;-2.70;99.90
10889;DHT22;5497;51.388;6.780;2022-12-18T02:36:20;-2.70;99.90
10889;DHT22;5497;51.388;6.780;2022-12-18T02:38:48;-3.10;99.90
10889;DHT22;5497;51.388;6.780;2022-12-18T02:41:18;-2.60;99.90
10889;DHT22;5497;51.388;6.780;2022-12-18T02:43:48;-2.60;99.90
10889;DHT22;5497;51.388;6.780;2022-12-18T02:46:26;-2.60;99.90
10889;DHT22;5497;51.388;6.780;2022-12-18T02:48:55;-2.50;99.90
10889;DHT22;5497;51.388;6.780;2022-12-18T02:51:27;-2.50;99.90
10889;DHT22;5497;51.388;6.780;2022-12-18T02:53:58;-2.50;99.90
10889;DHT22;5497;51.388;6.780;2022-12-18T02:56:28;-2.50;99.90
10889;DHT22;5497;51.388;6.780;2022-12-18T02:58:58;-2.40;99.90
10889;DHT22;5497;51.388;6.780;2022-12-18T03:01:40;-2.40;99.90
10889;DHT22;5497;51.388;6.780;2022-12-18T03:04:11;-2.30;99.90
10889;DHT22;5497;51.388;6.780;2022-12-18T03:06:41;-2.40;99.90
10889;DHT22;5497;51.388;6.780;2022-12-18T03:09:09;-2.30;99.90
10889;DHT22;5497;51.388;6.780;2022-12-18T03:11:39;-2.30;99.90
10889;DHT22;5497;51.388;6.780;2022-12-18T03:14:25;-2.30;99.90
10889;DHT22;5497;51.388;6.780;2022-12-18T03:16:53;-2.30;99.90
10889;DHT22;5497;51.388;6.780;2022-12-18T03:19:22;-2.30;99.90
10889;DHT22;5497;51.388;6.780;2022-12-18T03:21:52;-2.20;99.90
10889;DHT22;5497;51.388;6.780;2022-12-18T03:24:22;-2.20;99.90
10889;DHT22;5497;51.388;6.780;2022-12-18T03:26:52;-2.20;99.90
10889;DHT22;5497;51.388;6.780;2022-12-18T03:29:22;-2.10;99.90
10889;DHT22;5497;51.388;6.780;2022-12-18T03:31:52;-2.10;99.90
10889;DHT22;5497;51.388;6.780;2022-12-18T03:34:21;-2.10;99.90
10889;DHT22;5497;51.388;6.780;2022-12-18T03:36:50;-2.10;99.90
10889;DHT22;5497;51.388;6.780;2022-12-18T03:39:17;-2.00;99.90
10889;DHT22;5497;51.388;6.780;2022-12-18T03:41:55;-2.10;99.90
10889;DHT22;5497;51.388;6.780;2022-12-18T03:44:35;-2.00;99.90
10889;DHT22;5497;51.388;6.780;2022-12-18T03:47:08;-2.00;99.90
10889;DHT22;5497;51.388;6.780;2022-12-18T03:49:38;-2.00;99.90
10889;DHT22;5497;51.388;6.780;2022-12-18T03:52:07;-2.00;99.90
10889;DHT22;5497;51.388;6.780;2022-12-18T03:54:37;-2.00;99.90
10889;DHT22;5497;51.388;6.780;2022-12-18T03:57:13;-2.00;99.90
10889;DHT22;5497;51.388;6.780;2022-12-18T03:59:41;-2.00;99.90
10889;DHT22;5497;51.388;6.780;2022-12-18T04:02:12;-1.90;99.90
10889;DHT22;5497;51.388;6.780;2022-12-18T04:04:40;-2.00;99.90
10889;DHT22;5497;51.388;6.780;2022-12-18T04:07:08;-1.90;99.90
10889;DHT22;5497;51.388;6.780;2022-12-18T04:09:38;-1.90;99.90
10889;DHT22;5497;51.388;6.780;2022-12-18T04:12:05;-1.90;99.90
10889;DHT22;5497;51.388;6.780;2022-12-18T04:14:35;-2.00;99.90
10889;DHT22;5497;51.388;6.780;2022-12-18T04:17:04;-2.00;99.90
10889;DHT22;5497;51.388;6.780;2022-12-18T04:19:32;-2.00;99.90
10889;DHT22;5497;51.388;6.780;2022-12-18T04:22:02;-2.00;99.90
10889;DHT22;5497;51.388;6.780;2022-12-18T04:24:34;-2.00;99.90
10889;DHT22;5497;51.388;6.780;2022-12-18T04:27:15;-2.00;99.90
10889;DHT22;5497;51.388;6.780;2022-12-18T04:29:48;-2.10;99.90
10889;DHT22;5497;51.388;6.780;2022-12-18T04:32:17;-2.10;99.90
10889;DHT22;5497;51.388;6.780;2022-12-18T04:34:44;-2.10;99.90
10889;DHT22;5497;51.388;6.780;2022-12-18T04:37:11;-2.10;99.90
10889;DHT22;5497;51.388;6.780;2022-12-18T04:39:39;-2.10;99.90
10889;DHT22;5497;51.388;6.780;2022-12-18T04:42:13;-2.10;99.90
10889;DHT22;5497;51.388;6.780;2022-12-18T04:44:40;-2.20;99.90
10889;DHT22;5497;51.388;6.780;2022-12-18T04:47:09;-2.20;99.90
10889;DHT22;5497;51.388;6.780;2022-12-18T04:49:35;-2.20;99.90
10889;DHT22;5497;51.388;6.780;2022-12-18T04:52:03;-2.20;99.90
10889;DHT22;5497;51.388;6.780;2022-12-18T04:54:30;-2.30;99.90
10889;DHT22;5497;51.388;6.780;2022-12-18T04:56:57;-2.20;99.90
10889;DHT22;5497;51.388;6.780;2022-12-18T04:59:24;-2.20;99.90
10889;DHT22;5497;51.388;6.780;2022-12-18T05:01:51;-2.30;99.90
10889;DHT22;5497;51.388;6.780;2022-12-18T05:04:21;-2.30;99.90
10889;DHT22;5497;51.388;6.780;2022-12-18T05:06:48;-2.40;99.90
10889;DHT22;5497;51.388;6.780;2022-12-18T05:09:14;-2.40;99.90
10889;DHT22;5497;51.388;6.780;2022-12-18T05:11:41;-2.40;99.90
10889;DHT22;5497;51.388;6.780;2022-12-18T05:14:08;-2.00;99.90
10889;DHT22;5497;51.388;6.780;2022-12-18T05:16:35;-2.50;99.90
10889;DHT22;5497;51.388;6.780;2022-12-18T05:19:02;-2.50;99.90
10889;DHT22;5497;51.388;6.780;2022-12-18T05:21:30;-2.50;99.90
10889;DHT22;5497;51.388;6.780;2022-12-18T05:23:57;-2.60;99.90
10889;DHT22;5497;51.388;6.780;2022-12-18T05:26:24;-2.50;99.90
10889;DHT22;5497;51.388;6.780;2022-12-18T05:28:51;-2.50;99.90
10889;DHT22;5497;51.388;6.780;2022-12-18T05:31:18;-2.60;99.90
10889;DHT22;5497;51.388;6.780;2022-12-18T05:33:45;-2.60;99.90
10889;DHT22;5497;51.388;6.780;2022-12-18T05:36:12;-2.70;99.90
10889;DHT22;5497;51.388;6.780;2022-12-18T05:38:40;-2.60;99.90
10889;DHT22;5497;51.388;6.780;2022-12-18T05:41:08;-2.70;99.90
10889;DHT22;5497;51.388;6.780;2022-12-18T05:43:35;-1.70;99.90
10889;DHT22;5497;51.388;6.780;2022-12-18T05:46:03;-2.70;99.90
10889;DHT22;5497;51.388;6.780;2022-12-18T05:48:30;-2.80;99.90
10889;DHT22;5497;51.388;6.780;2022-12-18T05:51:02;-2.30;99.90
10889;DHT22;5497;51.388;6.780;2022-12-18T05:53:29;-2.90;99.90
10889;DHT22;5497;51.388;6.780;2022-12-18T05:56:00;-2.90;99.90
10889;DHT22;5497;51.388;6.780;2022-12-18T05:58:28;-3.00;99.90
10889;DHT22;5497;51.388;6.780;2022-12-18T06:00:57;-3.00;99.90
10889;DHT22;5497;51.388;6.780;2022-12-18T06:03:24;-3.00;99.90
10889;DHT22;5497;51.388;6.780;2022-12-18T06:05:51;-3.10;99.90
10889;DHT22;5497;51.388;6.780;2022-12-18T06:08:18;-3.10;99.90
10889;DHT22;5497;51.388;6.780;2022-12-18T06:10:49;-3.20;99.90
10889;DHT22;5497;51.388;6.780;2022-12-18T06:13:18;-3.30;99.90
10889;DHT22;5497;51.388;6.780;2022-12-18T06:15:45;-3.30;99.90
10889;DHT22;5497;51.388;6.780;2022-12-18T06:18:11;-3.30;99.90
10889;DHT22;5497;51.388;6.780;2022-12-18T06:20:38;-3.30;99.90
10889;DHT22;5497;51.388;6.780;2022-12-18T06:23:07;-3.40;99.90
10889;DHT22;5497;51.388;6.780;2022-12-18T06:25:36;-3.40;99.90
10889;DHT22;5497;51.388;6.780;2022-12-18T06:28:03;-3.50;99.90
10889;DHT22;5497;51.388;6.780;2022-12-18T06:30:31;-3.50;99.90
10889;DHT22;5497;51.388;6.780;2022-12-18T06:32:58;-3.50;99.90
10889;DHT22;5497;51.388;6.780;2022-12-18T06:35:25;-3.50;99.90
10889;DHT22;5497;51.388;6.780;2022-12-18T06:37:53;-3.50;99.90
10889;DHT22;5497;51.388;6.780;2022-12-18T06:40:20;-3.50;99.90
10889;DHT22;5497;51.388;6.780;2022-12-18T06:42:46;-3.60;99.90
10889;DHT22;5497;51.388;6.780;2022-12-18T06:45:15;-3.60;99.90
10889;DHT22;5497;51.388;6.780;2022-12-18T06:47:43;-3.60;99.90
10889;DHT22;5497;51.388;6.780;2022-12-18T06:50:10;-3.60;99.90
10889;DHT22;5497;51.388;6.780;2022-12-18T06:52:37;-3.60;99.90
10889;DHT22;5497;51.388;6.780;2022-12-18T06:55:08;-3.70;99.90
10889;DHT22;5497;51.388;6.780;2022-12-18T06:57:35;-3.70;99.90
10889;DHT22;5497;51.388;6.780;2022-12-18T07:00:03;-3.70;99.90
10889;DHT22;5497;51.388;6.780;2022-12-18T07:02:30;-3.70;99.90
10889;DHT22;5497;51.388;6.780;2022-12-18T07:04:58;-3.80;99.90
10889;DHT22;5497;51.388;6.780;2022-12-18T07:07:25;-3.70;99.90
10889;DHT22;5497;51.388;6.780;2022-12-18T07:09:52;-3.70;99.90
10889;DHT22;5497;51.388;6.780;2022-12-18T07:12:19;-3.70;99.90
10889;DHT22;5497;51.388;6.780;2022-12-18T07:14:46;-3.70;99.90
10889;DHT22;5497;51.388;6.780;2022-12-18T07:17:13;-3.70;99.90
10889;DHT22;5497;51.388;6.780;2022-12-18T07:19:40;-3.80;99.90
10889;DHT22;5497;51.388;6.780;2022-12-18T07:22:08;-3.90;99.90
10889;DHT22;5497;51.388;6.780;2022-12-18T07:24:35;-3.90;99.90
10889;DHT22;5497;51.388;6.780;2022-12-18T07:27:02;-3.90;99.90
10889;DHT22;5497;51.388;6.780;2022-12-18T07:29:32;-3.90;99.90
10889;DHT22;5497;51.388;6.780;2022-12-18T07:31:59;-3.90;99.90
10889;DHT22;5497;51.388;6.780;2022-12-18T07:34:26;-3.90;99.90
10889;DHT22;5497;51.388;6.780;2022-12-18T07:36:53;-3.90;99.90
10889;DHT22;5497;51.388;6.780;2022-12-18T07:39:21;-3.80;99.90
10889;DHT22;5497;51.388;6.780;2022-12-18T07:41:48;-3.80;99.90
10889;DHT22;5497;51.388;6.780;2022-12-18T07:44:39;-3.70;99.90
10889;DHT22;5497;51.388;6.780;2022-12-18T07:47:06;-3.70;99.90
10889;DHT22;5497;51.388;6.780;2022-12-18T07:49:33;-3.60;99.90
10889;DHT22;5497;51.388;6.780;2022-12-18T07:52:00;-3.50;99.90
10889;DHT22;5497;51.388;6.780;2022-12-18T07:54:28;-3.40;99.90
10889;DHT22;5497;51.388;6.780;2022-12-18T07:56:55;-3.20;99.90
10889;DHT22;5497;51.388;6.780;2022-12-18T07:59:22;-2.90;99.90
10889;DHT22;5497;51.388;6.780;2022-12-18T08:01:49;-2.80;99.90
10889;DHT22;5497;51.388;6.780;2022-12-18T08:04:16;-2.60;99.90
10889;DHT22;5497;51.388;6.780;2022-12-18T08:06:43;-2.40;99.90
10889;DHT22;5497;51.388;6.780;2022-12-18T08:09:13;-1.50;99.90
10889;DHT22;5497;51.388;6.780;2022-12-18T08:11:42;-2.00;99.90
10889;DHT22;5497;51.388;6.780;2022-12-18T08:14:09;-1.90;99.90
10889;DHT22;5497;51.388;6.780;2022-12-18T08:16:37;-1.70;99.90
10889;DHT22;5497;51.388;6.780;2022-12-18T08:19:05;-1.60;99.90
10889;DHT22;5497;51.388;6.780;2022-12-18T08:21:32;-1.50;99.90
10889;DHT22;5497;51.388;6.780;2022-12-18T08:24:00;-1.40;99.90
10889;DHT22;5497;51.388;6.780;2022-12-18T08:26:28;-1.30;99.90
10889;DHT22;5497;51.388;6.780;2022-12-18T08:28:57;-1.10;99.90
10889;DHT22;5497;51.388;6.780;2022-12-18T08:31:25;-1.00;99.90
10889;DHT22;5497;51.388;6.780;2022-12-18T08:33:53;-0.80;99.90
10889;DHT22;5497;51.388;6.780;2022-12-18T08:36:20;-0.70;99.90
10889;DHT22;5497;51.388;6.780;2022-12-18T08:38:48;-0.70;99.90
10889;DHT22;5497;51.388;6.780;2022-12-18T08:41:16;-0.60;99.90
10889;DHT22;5497;51.388;6.780;2022-12-18T08:43:43;-0.60;99.90
10889;DHT22;5497;51.388;6.780;2022-12-18T08:46:31;-0.60;99.90
10889;DHT22;5497;51.388;6.780;2022-12-18T08:48:59;-0.50;99.90
10889;DHT22;5497;51.388;6.780;2022-12-18T08:51:26;-0.40;99.90
10889;DHT22;5497;51.388;6.780;2022-12-18T08:53:53;-0.40;99.90
10889;DHT22;5497;51.388;6.780;2022-12-18T08:56:19;-0.30;99.90
10889;DHT22;5497;51.388;6.780;2022-12-18T08:58:47;-0.20;99.90
10889;DHT22;5497;51.388;6.780;2022-12-18T09:01:15;-0.10;99.90
10889;DHT22;5497;51.388;6.780;2022-12-18T09:03:43;0.00;99.90
10889;DHT22;5497;51.388;6.780;2022-12-18T09:06:14;0.10;99.90
10889;DHT22;5497;51.388;6.780;2022-12-18T09:08:44;0.10;99.90
10889;DHT22;5497;51.388;6.780;2022-12-18T09:11:13;0.20;99.90
10889;DHT22;5497;51.388;6.780;2022-12-18T09:13:40;0.30;99.90
10889;DHT22;5497;51.388;6.780;2022-12-18T09:16:07;0.30;99.90
10889;DHT22;5497;51.388;6.780;2022-12-18T09:18:37;0.50;99.90
10889;DHT22;5497;51.388;6.780;2022-12-18T09:21:12;0.50;99.90
10889;DHT22;5497;51.388;6.780;2022-12-18T09:23:40;0.60;99.90
10889;DHT22;5497;51.388;6.780;2022-12-18T09:26:07;0.60;99.90
10889;DHT22;5497;51.388;6.780;2022-12-18T09:28:34;0.70;99.90
10889;DHT22;5497;51.388;6.780;2022-12-18T09:31:03;0.80;99.90
10889;DHT22;5497;51.388;6.780;2022-12-18T09:33:30;1.00;99.90
10889;DHT22;5497;51.388;6.780;2022-12-18T09:36:00;1.10;99.90
10889;DHT22;5497;51.388;6.780;2022-12-18T09:38:29;1.20;99.90
10889;DHT22;5497;51.388;6.780;2022-12-18T09:40:57;1.30;99.90
10889;DHT22;5497;51.388;6.780;2022-12-18T09:43:30;1.40;99.90
10889;DHT22;5497;51.388;6.780;2022-12-18T09:46:01;1.50;99.90
10889;DHT22;5497;51.388;6.780;2022-12-18T09:48:30;1.60;99.90
10889;DHT22;5497;51.388;6.780;2022-12-18T09:51:00;1.60;99.90
10889;DHT22;5497;51.388;6.780;2022-12-18T09:53:30;2.90;99.90
10889;DHT22;5497;51.388;6.780;2022-12-18T09:55:58;1.70;99.90
10889;DHT22;5497;51.388;6.780;2022-12-18T09:58:27;1.70;99.90
10889;DHT22;5497;51.388;6.780;2022-12-18T10:00:55;1.80;99.90
10889;DHT22;5497;51.388;6.780;2022-12-18T10:03:22;1.90;99.90
10889;DHT22;5497;51.388;6.780;2022-12-18T10:05:53;2.00;99.90
10889;DHT22;5497;51.388;6.780;2022-12-18T10:08:22;2.00;99.90
10889;DHT22;5497;51.388;6.780;2022-12-18T10:10:53;2.10;99.90
10889;DHT22;5497;51.388;6.780;2022-12-18T10:13:22;2.20;99.90
10889;DHT22;5497;51.388;6.780;2022-12-18T10:15:58;2.30;99.90
10889;DHT22;5497;51.388;6.780;2022-12-18T10:18:31;2.40;99.90
10889;DHT22;5497;51.388;6.780;2022-12-18T10:21:06;2.50;99.90
10889;DHT22;5497;51.388;6.780;2022-12-18T10:23:37;2.60;99.90
10889;DHT22;5497;51.388;6.780;2022-12-18T10:26:10;2.70;99.90
10889;DHT22;5497;51.388;6.780;2022-12-18T10:28:38;2.80;99.90
10889;DHT22;5497;51.388;6.780;2022-12-18T10:31:06;2.90;99.90
10889;DHT22;5497;51.388;6.780;2022-12-18T10:33:33;3.00;99.90
10889;DHT22;5497;51.388;6.780;2022-12-18T10:36:00;3.20;99.90
10889;DHT22;5497;51.388;6.780;2022-12-18T10:38:28;3.30;99.90
10889;DHT22;5497;51.388;6.780;2022-12-18T10:40:58;3.30;99.90
10889;DHT22;5497;51.388;6.780;2022-12-18T10:43:30;3.40;99.90
10889;DHT22;5497;51.388;6.780;2022-12-18T10:46:00;3.50;99.90
10889;DHT22;5497;51.388;6.780;2022-12-18T10:48:27;3.60;99.90
10889;DHT22;5497;51.388;6.780;2022-12-18T10:50:57;3.60;99.90
10889;DHT22;5497;51.388;6.780;2022-12-18T10:53:24;3.70;99.90
10889;DHT22;5497;51.388;6.780;2022-12-18T10:55:53;3.80;99.90
10889;DHT22;5497;51.388;6.780;2022-12-18T10:58:26;3.80;99.90
10889;DHT22;5497;51.388;6.780;2022-12-18T11:01:05;3.80;99.90
10889;DHT22;5497;51.388;6.780;2022-12-18T11:03:34;3.80;99.90
10889;DHT22;5497;51.388;6.780;2022-12-18T11:06:03;3.80;99.90
10889;DHT22;5497;51.388;6.780;2022-12-18T11:08:31;3.70;99.90
10889;DHT22;5497;51.388;6.780;2022-12-18T11:10:58;4.10;99.90
10889;DHT22;5497;51.388;6.780;2022-12-18T11:13:26;3.80;99.90
10889;DHT22;5497;51.388;6.780;2022-12-18T11:15:54;3.90;99.90
10889;DHT22;5497;51.388;6.780;2022-12-18T11:18:24;3.90;99.90
10889;DHT22;5497;51.388;6.780;2022-12-18T11:20:53;4.00;99.90
10889;DHT22;5497;51.388;6.780;2022-12-18T11:23:21;4.10;99.90
10889;DHT22;5497;51.388;6.780;2022-12-18T11:25:53;4.20;99.90
10889;DHT22;5497;51.388;6.780;2022-12-18T11:28:25;4.30;99.90
10889;DHT22;5497;51.388;6.780;2022-12-18T11:31:08;4.30;99.90
10889;DHT22;5497;51.388;6.780;2022-12-18T11:33:37;4.30;99.90
10889;DHT22;5497;51.388;6.780;2022-12-18T11:36:06;4.30;99.90
10889;DHT22;5497;51.388;6.780;2022-12-18T11:38:35;4.30;99.90
10889;DHT22;5497;51.388;6.780;2022-12-18T11:41:04;4.30;99.90
10889;DHT22;5497;51.388;6.780;2022-12-18T11:43:33;4.30;99.90
10889;DHT22;5497;51.388;6.780;2022-12-18T11:46:06;4.30;99.90
10889;DHT22;5497;51.388;6.780;2022-12-18T11:48:34;4.40;99.90
10889;DHT22;5497;51.388;6.780;2022-12-18T11:51:05;4.30;99.90
10889;DHT22;5497;51.388;6.780;2022-12-18T11:53:36;4.30;99.90
10889;DHT22;5497;51.388;6.780;2022-12-18T11:56:06;4.30;99.90
10889;DHT22;5497;51.388;6.780;2022-12-18T11:58:44;4.30;99.90
10889;DHT22;5497;51.388;6.780;2022-12-18T12:01:16;4.30;99.90
10889;DHT22;5497;51.388;6.780;2022-12-18T12:03:56;4.20;99.90
10889;DHT22;5497;51.388;6.780;2022-12-18T12:06:28;4.20;99.90
10889;DHT22;5497;51.388;6.780;2022-12-18T12:09:02;4.20;99.90
10889;DHT22;5497;51.388;6.780;2022-12-18T12:11:35;4.10;99.90
10889;DHT22;5497;51.388;6.780;2022-12-18T12:14:14;3.80;99.90
10889;DHT22;5497;51.388;6.780;2022-12-18T12:16:45;4.00;99.90
10889;DHT22;5497;51.388;6.780;2022-12-18T12:19:19;4.00;99.90
10889;DHT22;5497;51.388;6.780;2022-12-18T12:21:53;3.90;99.90
10889;DHT22;5497;51.388;6.780;2022-12-18T12:24:28;3.90;99.90
10889;DHT22;5497;51.388;6.780;2022-12-18T12:27:03;3.90;99.90
10889;DHT22;5497;51.388;6.780;2022-12-18T12:29:38;3.90;99.90
10889;DHT22;5497;51.388;6.780;2022-12-18T12:32:12;4.00;99.90
10889;DHT22;5497;51.388;6.780;2022-12-18T12:34:45;3.90;99.90
10889;DHT22;5497;51.388;6.780;2022-12-18T12:37:21;3.90;99.90
10889;DHT22;5497;51.388;6.780;2022-12-18T12:39:51;3.80;99.90
10889;DHT22;5497;51.388;6.780;2022-12-18T12:42:22;3.90;99.90
10889;DHT22;5497;51.388;6.780;2022-12-18T12:45:13;3.90;99.90
10889;DHT22;5497;51.388;6.780;2022-12-18T12:47:43;3.90;99.90
10889;DHT22;5497;51.388;6.780;2022-12-18T12:50:12;3.90;99.90
10889;DHT22;5497;51.388;6.780;2022-12-18T12:52:43;3.90;99.90
10889;DHT22;5497;51.388;6.780;2022-12-18T12:55:14;3.80;99.90
10889;DHT22;5497;51.388;6.780;2022-12-18T12:57:45;3.80;99.90
10889;DHT22;5497;51.388;6.780;2022-12-18T13:00:15;3.70;99.90
10889;DHT22;5497;51.388;6.780;2022-12-18T13:02:44;3.70;99.90
10889;DHT22;5497;51.388;6.780;2022-12-18T13:05:16;3.60;99.90
10889;DHT22;5497;51.388;6.780;2022-12-18T13:07:49;3.60;99.90
10889;DHT22;5497;51.388;6.780;2022-12-18T13:10:24;3.60;99.90
10889;DHT22;5497;51.388;6.780;2022-12-18T13:12:55;3.50;99.90
10889;DHT22;5497;51.388;6.780;2022-12-18T13:15:22;3.50;99.90
10889;DHT22;5497;51.388;6.780;2022-12-18T13:17:59;3.40;99.90
10889;DHT22;5497;51.388;6.780;2022-12-18T13:20:32;3.40;99.90
10889;DHT22;5497;51.388;6.780;2022-12-18T13:23:01;3.40;99.90
10889;DHT22;5497;51.388;6.780;2022-12-18T13:25:32;3.40;99.90
10889;DHT22;5497;51.388;6.780;2022-12-18T13:28:02;3.40;99.90
10889;DHT22;5497;51.388;6.780;2022-12-18T13:30:46;3.30;99.90
10889;DHT22;5497;51.388;6.780;2022-12-18T13:36:02;3.30;99.90
10889;DHT22;5497;51.388;6.780;2022-12-18T13:38:34;3.20;99.90
10889;DHT22;5497;51.388;6.780;2022-12-18T13:41:20;3.20;99.90
10889;DHT22;5497;51.388;6.780;2022-12-18T13:43:48;3.10;99.90
10889;DHT22;5497;51.388;6.780;2022-12-18T13:49:02;3.10;99.90
10889;DHT22;5497;51.388;6.780;2022-12-18T13:51:31;3.10;99.90
10889;DHT22;5497;51.388;6.780;2022-12-18T13:54:00;3.10;99.90
10889;DHT22;5497;51.388;6.780;2022-12-18T13:56:29;3.10;99.90
10889;DHT22;5497;51.388;6.780;2022-12-18T14:01:48;3.10;99.90
10889;DHT22;5497;51.388;6.780;2022-12-18T14:04:21;3.00;99.90
10889;DHT22;5497;51.388;6.780;2022-12-18T14:06:49;3.00;99.90
10889;DHT22;5497;51.388;6.780;2022-12-18T14:09:18;3.00;99.90
10889;DHT22;5497;51.388;6.780;2022-12-18T14:11:47;3.00;99.90
10889;DHT22;5497;51.388;6.780;2022-12-18T14:14:15;3.00;99.90
10889;DHT22;5497;51.388;6.780;2022-12-18T14:16:42;2.90;99.90
10889;DHT22;5497;51.388;6.780;2022-12-18T14:21:36;2.90;99.90
10889;DHT22;5497;51.388;6.780;2022-12-18T14:24:05;2.90;99.90
10889;DHT22;5497;51.388;6.780;2022-12-18T14:26:34;2.90;99.90
10889;DHT22;5497;51.388;6.780;2022-12-18T14:29:01;2.80;99.90
10889;DHT22;5497;51.388;6.780;2022-12-18T14:31:44;2.80;99.90
10889;DHT22;5497;51.388;6.780;2022-12-18T14:34:14;2.70;99.90
10889;DHT22;5497;51.388;6.780;2022-12-18T14:36:41;2.70;99.90
10889;DHT22;5497;51.388;6.780;2022-12-18T14:39:18;2.70;99.90
10889;DHT22;5497;51.388;6.780;2022-12-18T14:41:46;2.70;99.90
10889;DHT22;5497;51.388;6.780;2022-12-18T14:44:15;3.90;99.90
10889;DHT22;5497;51.388;6.780;2022-12-18T14:46:42;2.60;99.90
10889;DHT22;5497;51.388;6.780;2022-12-18T14:49:17;2.50;99.90
10889;DHT22;5497;51.388;6.780;2022-12-18T14:51:47;2.50;99.90
10889;DHT22;5497;51.388;6.780;2022-12-18T14:54:16;2.50;99.90
10889;DHT22;5497;51.388;6.780;2022-12-18T14:56:44;2.40;99.90
10889;DHT22;5497;51.388;6.780;2022-12-18T14:59:14;2.40;99.90
10889;DHT22;5497;51.388;6.780;2022-12-18T15:01:44;2.40;99.90
10889;DHT22;5497;51.388;6.780;2022-12-18T15:04:23;2.40;99.90
10889;DHT22;5497;51.388;6.780;2022-12-18T15:07:01;2.40;99.90
10889;DHT22;5497;51.388;6.780;2022-12-18T15:09:29;2.40;99.90
10889;DHT22;5497;51.388;6.780;2022-12-18T15:11:56;2.30;99.90
10889;DHT22;5497;51.388;6.780;2022-12-18T15:14:31;2.40;99.90
10889;DHT22;5497;51.388;6.780;2022-12-18T15:17:00;2.30;99.90
10889;DHT22;5497;51.388;6.780;2022-12-18T15:19:37;2.30;99.90
10889;DHT22;5497;51.388;6.780;2022-12-18T15:22:14;2.30;99.90
10889;DHT22;5497;51.388;6.780;2022-12-18T15:24:44;2.30;99.90
10889;DHT22;5497;51.388;6.780;2022-12-18T15:27:19;2.30;99.90
10889;DHT22;5497;51.388;6.780;2022-12-18T15:30:00;2.30;99.90
10889;DHT22;5497;51.388;6.780;2022-12-18T15:32:27;2.30;99.90
10889;DHT22;5497;51.388;6.780;2022-12-18T15:35:01;2.20;99.90
10889;DHT22;5497;51.388;6.780;2022-12-18T15:37:29;2.20;99.90
10889;DHT22;5497;51.388;6.780;2022-12-18T15:39:55;2.20;99.90
10889;DHT22;5497;51.388;6.780;2022-12-18T15:42:22;2.20;99.90
10889;DHT22;5497;51.388;6.780;2022-12-18T15:45:10;2.20;99.90
10889;DHT22;5497;51.388;6.780;2022-12-18T15:47:38;2.20;99.90
10889;DHT22;5497;51.388;6.780;2022-12-18T15:50:05;2.20;99.90
10889;DHT22;5497;51.388;6.780;2022-12-18T15:52:36;2.20;99.90
10889;DHT22;5497;51.388;6.780;2022-12-18T15:55:08;2.20;99.90
10889;DHT22;5497;51.388;6.780;2022-12-18T15:57:54;2.20;99.90
10889;DHT22;5497;51.388;6.780;2022-12-18T16:00:22;2.20;99.90
10889;DHT22;5497;51.388;6.780;2022-12-18T16:02:49;2.20;99.90
10889;DHT22;5497;51.388;6.780;2022-12-18T16:05:17;2.30;99.90
10889;DHT22;5497;51.388;6.780;2022-12-18T16:07:44;2.20;99.90
10889;DHT22;5497;51.388;6.780;2022-12-18T16:10:11;2.10;99.90
10889;DHT22;5497;51.388;6.780;2022-12-18T16:12:38;2.10;99.90
10889;DHT22;5497;51.388;6.780;2022-12-18T16:15:06;2.10;99.90
10889;DHT22;5497;51.388;6.780;2022-12-18T16:17:34;2.00;99.90
10889;DHT22;5497;51.388;6.780;2022-12-18T16:20:01;2.00;99.90